sensor_id;sensor_type;location;lat;lon;timestamp;temperature;humidity
41080;DHT22;26826;50.718;7.114;2023-05-16T00:02:57;12.50;99.90
41080;DHT22;26826;50.718;7.114;2023-05-16T00:12:58;12.40;99.90
41080;DHT22;26826;50.718;7.114;2023-05-16T00:33:42;11.60;99.90
41080;DHT22;26826;50.718;7.114;2023-05-16T00:43:43;11.10;99.90
41080;DHT22;26826;50.718;7.114;2023-05-16T00:53:44;11.10;99.90
41080;DHT22;26826;50.718;7.114;2023-05-16T01:03:44;11.00;99.90
41080;DHT22;26826;50.718;7.114;2023-05-16T01:24:22;10.80;99.90
41080;DHT22;26826;50.718;7.114;2023-05-16T01:34:25;10.80;99.90
41080;DHT22;26826;50.718;7.114;2023-05-16T01:44:32;10.80;99.90
41080;DHT22;26826;50.718;7.114;2023-05-16T01:54:37;10.80;99.90
41080;DHT22;26826;50.718;7.114;2023-05-16T02:04:38;10.80;99.90
41080;DHT22;26826;50.718;7.114;2023-05-16T02:14:38;10.80;99.90
41080;DHT22;26826;50.718;7.114;2023-05-16T02:24:39;10.70;99.90
41080;DHT22;26826;50.718;7.114;2023-05-16T02:34:39;10.60;99.90
41080;DHT22;26826;50.718;7.114;2023-05-16T02:44:40;10.30;99.90
41080;DHT22;26826;50.718;7.114;2023-05-16T02:54:40;10.30;99.90
41080;DHT22;26826;50.718;7.114;2023-05-16T03:04:41;10.20;99.90
41080;DHT22;26826;50.718;7.114;2023-05-16T03:14:41;10.10;99.90
41080;DHT22;26826;50.718;7.114;2023-05-16T03:24:42;10.00;99.90
41080;DHT22;26826;50.718;7.114;2023-05-16T03:34:42;9.70;99.90
41080;DHT22;26826;50.718;7.114;2023-05-16T03:44:43;9.50;99.90
41080;DHT22;26826;50.718;7.114;2023-05-16T03:54:44;9.40;99.90
41080;DHT22;26826;50.718;7.114;2023-05-16T04:04:44;9.30;99.90
41080;DHT22;26826;50.718;7.114;2023-05-16T04:14:45;9.30;99.90
41080;DHT22;26826;50.718;7.114;2023-05-16T04:24:46;9.50;99.90
41080;DHT22;26826;50.718;7.114;2023-05-16T04:34:47;9.20;99.90
41080;DHT22;26826;50.718;7.114;2023-05-16T04:44:49;9.20;99.90
41080;DHT22;26826;50.718;7.114;2023-05-16T04:54:50;9.10;99.90
41080;DHT22;26826;50.718;7.114;2023-05-16T05:04:51;9.20;99.90
41080;DHT22;26826;50.718;7.114;2023-05-16T05:14:52;8.90;99.90
41080;DHT22;26826;50.718;7.114;2023-05-16T05:24:52;8.90;99.90
41080;DHT22;26826;50.718;7.114;2023-05-16T05:34:53;8.90;99.90
41080;DHT22;26826;50.718;7.114;2023-05-16T05:44:54;8.90;99.90
41080;DHT22;26826;50.718;7.114;2023-05-16T05:54:54;8.90;99.90
41080;DHT22;26826;50.718;7.114;2023-05-16T06:04:55;9.10;99.90
41080;DHT22;26826;50.718;7.114;2023-05-16T06:14:55;9.30;99.90
41080;DHT22;26826;50.718;7.114;2023-05-16T06:24:56;9.50;99.90
41080;DHT22;26826;50.718;7.114;2023-05-16T06:34:56;9.70;99.90
41080;DHT22;26826;50.718;7.114;2023-05-16T06:44:57;10.00;99.90
41080;DHT22;26826;50.718;7.114;2023-05-16T06:54:57;10.40;99.90
41080;DHT22;26826;50.718;7.114;2023-05-16T07:04:58;10.50;99.90
41080;DHT22;26826;50.718;7.114;2023-05-16T07:14:59;10.60;99.90
41080;DHT22;26826;50.718;7.114;2023-05-16T07:24:59;11.00;99.90
41080;DHT22;26826;50.718;7.114;2023-05-16T07:35:00;11.00;99.90
41080;DHT22;26826;50.718;7.114;2023-05-16T07:45:04;11.90;99.90
41080;DHT22;26826;50.718;7.114;2023-05-16T07:55:11;12.30;99.90
41080;DHT22;26826;50.718;7.114;2023-05-16T08:05:13;11.60;99.90
41080;DHT22;26826;50.718;7.114;2023-05-16T08:15:20;12.70;99.90
41080;DHT22;26826;50.718;7.114;2023-05-16T08:25:44;13.30;99.90
41080;DHT22;26826;50.718;7.114;2023-05-16T08:36:05;13.00;99.90
41080;DHT22;26826;50.718;7.114;2023-05-16T08:46:12;13.00;99.90
41080;DHT22;26826;50.718;7.114;2023-05-16T08:56:13;13.20;99.90
41080;DHT22;26826;50.718;7.114;2023-05-16T09:06:16;13.30;99.90
41080;DHT22;26826;50.718;7.114;2023-05-16T09:16:19;14.30;99.90
41080;DHT22;26826;50.718;7.114;2023-05-16T09:26:21;15.50;99.90
41080;DHT22;26826;50.718;7.114;2023-05-16T09:36:22;16.10;99.90
41080;DHT22;26826;50.718;7.114;2023-05-16T09:46:26;15.60;99.90
41080;DHT22;26826;50.718;7.114;2023-05-16T09:56:31;16.20;99.90
41080;DHT22;26826;50.718;7.114;2023-05-16T10:06:32;17.20;99.90
41080;DHT22;26826;50.718;7.114;2023-05-16T10:16:34;17.80;99.00
41080;DHT22;26826;50.718;7.114;2023-05-16T10:26:35;18.10;97.70
41080;DHT22;26826;50.718;7.114;2023-05-16T10:36:45;17.20;98.40
41080;DHT22;26826;50.718;7.114;2023-05-16T10:46:47;17.90;97.20
41080;DHT22;26826;50.718;7.114;2023-05-16T10:56:54;18.30;97.00
41080;DHT22;26826;50.718;7.114;2023-05-16T11:07:06;17.00;96.90
41080;DHT22;26826;50.718;7.114;2023-05-16T11:27:47;18.20;97.30
41080;DHT22;26826;50.718;7.114;2023-05-16T11:37:56;18.00;94.40
41080;DHT22;26826;50.718;7.114;2023-05-16T11:48:01;19.50;94.20
41080;DHT22;26826;50.718;7.114;2023-05-16T12:08:34;18.70;93.80
41080;DHT22;26826;50.718;7.114;2023-05-16T12:18:36;18.20;93.10
41080;DHT22;26826;50.718;7.114;2023-05-16T12:28:38;18.20;94.30
41080;DHT22;26826;50.718;7.114;2023-05-16T12:38:39;17.70;94.10
41080;DHT22;26826;50.718;7.114;2023-05-16T12:48:40;17.30;95.50
41080;DHT22;26826;50.718;7.114;2023-05-16T12:58:43;18.50;95.20
41080;DHT22;26826;50.718;7.114;2023-05-16T13:08:44;19.30;94.20
41080;DHT22;26826;50.718;7.114;2023-05-16T13:18:45;20.30;92.40
41080;DHT22;26826;50.718;7.114;2023-05-16T13:28:45;19.40;92.20
41080;DHT22;26826;50.718;7.114;2023-05-16T13:38:46;19.00;92.30
41080;DHT22;26826;50.718;7.114;2023-05-16T13:48:47;17.90;94.40
41080;DHT22;26826;50.718;7.114;2023-05-16T13:58:49;16.70;96.30
41080;DHT22;26826;50.718;7.114;2023-05-16T14:08:50;16.80;97.20
41080;DHT22;26826;50.718;7.114;2023-05-16T14:18:51;16.90;97.00
41080;DHT22;26826;50.718;7.114;2023-05-16T14:28:52;17.20;96.40
41080;DHT22;26826;50.718;7.114;2023-05-16T14:38:52;17.30;96.00
41080;DHT22;26826;50.718;7.114;2023-05-16T14:48:53;18.30;94.70
41080;DHT22;26826;50.718;7.114;2023-05-16T14:58:53;18.00;92.90
41080;DHT22;26826;50.718;7.114;2023-05-16T15:08:54;17.00;93.00
41080;DHT22;26826;50.718;7.114;2023-05-16T15:18:54;17.00;94.50
41080;DHT22;26826;50.718;7.114;2023-05-16T15:28:55;17.70;93.10
41080;DHT22;26826;50.718;7.114;2023-05-16T15:38:55;17.00;92.90
41080;DHT22;26826;50.718;7.114;2023-05-16T15:48:56;16.50;93.00
41080;DHT22;26826;50.718;7.114;2023-05-16T15:58:57;16.00;94.10
41080;DHT22;26826;50.718;7.114;2023-05-16T16:08:57;17.20;94.00
41080;DHT22;26826;50.718;7.114;2023-05-16T16:18:58;17.00;94.00
41080;DHT22;26826;50.718;7.114;2023-05-16T16:28:59;16.60;94.60
41080;DHT22;26826;50.718;7.114;2023-05-16T16:38:59;15.90;95.00
41080;DHT22;26826;50.718;7.114;2023-05-16T16:49:00;15.60;95.30
41080;DHT22;26826;50.718;7.114;2023-05-16T16:59:00;16.00;95.40
41080;DHT22;26826;50.718;7.114;2023-05-16T17:09:01;15.80;95.30
41080;DHT22;26826;50.718;7.114;2023-05-16T17:19:04;15.30;96.10
41080;DHT22;26826;50.718;7.114;2023-05-16T17:29:05;15.00;96.20
41080;DHT22;26826;50.718;7.114;2023-05-16T17:39:05;15.20;96.80
41080;DHT22;26826;50.718;7.114;2023-05-16T17:49:07;14.70;97.20
41080;DHT22;26826;50.718;7.114;2023-05-16T17:59:09;14.40;98.70
41080;DHT22;26826;50.718;7.114;2023-05-16T18:09:10;14.20;98.60
41080;DHT22;26826;50.718;7.114;2023-05-16T18:19:10;14.30;99.00
41080;DHT22;26826;50.718;7.114;2023-05-16T18:29:11;13.90;99.90
41080;DHT22;26826;50.718;7.114;2023-05-16T18:39:12;13.80;99.90
41080;DHT22;26826;50.718;7.114;2023-05-16T18:49:13;13.70;99.60
41080;DHT22;26826;50.718;7.114;2023-05-16T18:59:13;13.40;99.70
41080;DHT22;26826;50.718;7.114;2023-05-16T19:09:14;13.40;99.90
41080;DHT22;26826;50.718;7.114;2023-05-16T19:19:14;13.30;99.90
41080;DHT22;26826;50.718;7.114;2023-05-16T19:29:15;13.20;99.90
41080;DHT22;26826;50.718;7.114;2023-05-16T19:39:16;13.00;99.90
41080;DHT22;26826;50.718;7.114;2023-05-16T19:49:16;12.90;99.90
41080;DHT22;26826;50.718;7.114;2023-05-16T19:59:17;12.90;99.90
41080;DHT22;26826;50.718;7.114;2023-05-16T20:09:17;12.80;99.90
41080;DHT22;26826;50.718;7.114;2023-05-16T20:19:18;12.90;99.90
41080;DHT22;26826;50.718;7.114;2023-05-16T20:29:19;12.70;99.90
41080;DHT22;26826;50.718;7.114;2023-05-16T20:39:19;12.70;99.90
41080;DHT22;26826;50.718;7.114;2023-05-16T20:49:20;12.60;99.90
41080;DHT22;26826;50.718;7.114;2023-05-16T20:59:20;12.60;99.90
41080;DHT22;26826;50.718;7.114;2023-05-16T21:09:21;12.60;99.90
41080;DHT22;26826;50.718;7.114;2023-05-16T21:19:21;12.50;99.90
41080;DHT22;26826;50.718;7.114;2023-05-16T21:29:22;12.40;99.90
41080;DHT22;26826;50.718;7.114;2023-05-16T21:39:22;12.10;99.90
41080;DHT22;26826;50.718;7.114;2023-05-16T21:49:23;12.00;99.90
41080;DHT22;26826;50.718;7.114;2023-05-16T21:59:23;12.00;99.90
41080;DHT22;26826;50.718;7.114;2023-05-16T22:09:24;12.00;99.90
41080;DHT22;26826;50.718;7.114;2023-05-16T22:19:24;12.00;99.90
41080;DHT22;26826;50.718;7.114;2023-05-16T22:29:25;11.80;99.90
41080;DHT22;26826;50.718;7.114;2023-05-16T22:39:25;11.60;99.90
41080;DHT22;26826;50.718;7.114;2023-05-16T22:49:26;11.60;99.90
41080;DHT22;26826;50.718;7.114;2023-05-16T22:59:27;11.40;99.90
41080;DHT22;26826;50.718;7.114;2023-05-16T23:09:27;11.50;99.90
41080;DHT22;26826;50.718;7.114;2023-05-16T23:19:28;11.30;99.90
41080;DHT22;26826;50.718;7.114;2023-05-16T23:29:28;11.40;99.90
41080;DHT22;26826;50.718;7.114;2023-05-16T23:39:29;11.30;99.90
41080;DHT22;26826;50.718;7.114;2023-05-16T23:49:29;11.20;99.90
41080;DHT22;26826;50.718;7.114;2023-05-16T23:59:30;11.10;99.90
